Flight Track Log - Related Links

Times and Time Zones

All times are in EDT time to prevent confusion due to time zone crossing. See the SKW5646 flight status page for this flight to view local times or setup timezone preferences in your user account.

Time Position Orientation Groundspeed Altitude Reporting Facility
EDT Latitude Longitude Course Direction KTS MPH feet Rate Location/Type
Thu 03:39:03 PM 34.4250 -119.8736 250° West 171 197 900  Level Los Angeles Center
Thu 03:39:21 PM 34.4236 -119.8989 266° West 146 168 1,600 1,800 Climbing Los Angeles Center
Thu 03:40:03 PM 34.4283 -119.9361 279° West 157 181 2,700 1,600 Climbing Los Angeles Center
Thu 03:40:21 PM 34.4200 -119.9600 247° West 180 207 3,200 1,452 Climbing Los Angeles Center
Thu 03:41:05 PM 34.4183 -120.0058 267° West 186 214 4,200 1,065 Climbing Los Angeles Center
Thu 03:42:00 PM 34.5698 -120.1365 321° Northwest  Level FlightAware Approximate
Thu 03:42:08 PM 34.4122 -120.0797 264° West 213 245 5,100  Level Los Angeles Center
Thu 03:43:00 PM 34.6302 -120.1893 328° Northwest  Level FlightAware Approximate
Thu 03:43:11 PM 34.4031 -120.1556 262° West 234 269 6,000  Level Los Angeles Center
Thu 03:44:00 PM 34.6864 -120.2339 324° Northwest  Level FlightAware Approximate
Thu 03:44:12 PM 34.3883 -120.2553 260° West 248 285 7,400  Level Los Angeles Center
Thu 03:45:14 PM 34.4256 -120.3156 307° West 250 288 8,400 1,113 Climbing Los Angeles Center
Thu 03:46:16 PM 34.4853 -120.3572 330° Northwest 243 280 9,700 1,258 Climbing Los Angeles Center
Thu 03:47:18 PM 34.5469 -120.3878 338° Northwest 239 275 11,000 1,161 Climbing Los Angeles Center
Thu 03:48:20 PM 34.6078 -120.4206 336° Northwest 238 274 12,100 1,065 Climbing Los Angeles Center
Thu 03:49:22 PM 34.6700 -120.4528 337° Northwest 242 278 13,200 1,210 Climbing Los Angeles Center
Thu 03:50:24 PM 34.7461 -120.4928 337° Northwest 244 281 14,600 1,248 Climbing Los Angeles Center
Thu 03:51:27 PM 34.8092 -120.5261 337° Northwest 247 284 15,800 1,104 Climbing Los Angeles Center
Thu 03:52:29 PM 34.8694 -120.5572 337° Northwest 247 284 16,900 1,016 Climbing Los Angeles Center
Thu 03:53:31 PM 34.9319 -120.5897 337° Northwest 246 283 17,900 1,016 Climbing Los Angeles Center
Thu 03:54:33 PM 35.0039 -120.6283 336° Northwest 237 273 19,000 919 Climbing Los Angeles Center
Thu 03:55:35 PM 35.0647 -120.6597 337° Northwest 238 274 19,800 726 Climbing Los Angeles Center
Thu 03:56:37 PM 35.1247 -120.6928 336° Northwest 237 273 20,500 726 Climbing Los Angeles Center
Thu 03:57:39 PM 35.1869 -120.7256 337° Northwest 242 278 21,300 726 Climbing Los Angeles Center
Thu 03:58:41 PM 35.2486 -120.7581 337° Northwest 242 278 22,000 677 Climbing Los Angeles Center
Thu 03:59:43 PM 35.3033 -120.8086 323° Northwest 247 284 22,700 672 Climbing Los Angeles Center
Thu 04:00:46 PM 35.3700 -120.8686 324° Northwest 248 285 23,400 595 Climbing Los Angeles Center
Thu 04:01:34 PM 35.4081 -120.9058 321° Northwest 250 288 23,800 327 Climbing Oakland Center
Thu 04:02:36 PM 35.4628 -120.9561 323° Northwest 245 282 24,000 98 Climbing Oakland Center
Thu 04:03:37 PM 35.5186 -121.0106 322° Northwest 254 292 24,000  Level Oakland Center
Thu 04:04:39 PM 35.5892 -121.0764 323° Northwest 264 304 24,000  Level Oakland Center
Thu 04:06:42 PM 35.7086 -121.1908 322° Northwest 272 313 24,000  Level Oakland Center
Thu 04:07:43 PM 35.7689 -121.2478 323° Northwest 273 314 24,000  Level Oakland Center
Thu 04:08:45 PM 35.8297 -121.3058 322° Northwest 274 315 24,000  Level Oakland Center
Thu 04:09:46 PM 35.8903 -121.3639 322° Northwest 275 316 24,000  Level Oakland Center
Thu 04:10:48 PM 35.9500 -121.4214 322° Northwest 273 314 24,000  Level Oakland Center
Thu 04:11:49 PM 36.0108 -121.4778 323° Northwest 274 315 24,000  Level Oakland Center
Thu 04:12:51 PM 36.0692 -121.5367 321° Northwest 271 312 24,000  Level Oakland Center
Thu 04:13:52 PM 36.1417 -121.6067 322° Northwest 277 319 24,000 -195 Level Oakland Center
Thu 04:14:54 PM 36.2050 -121.6589 326° Northwest 275 316 23,600 -780 Descending Oakland Center
Thu 04:15:55 PM 36.2803 -121.6983 337° Northwest 288 331 22,400 -1,082 Descending Oakland Center
Thu 04:16:56 PM 36.3611 -121.7375 339° North 308 354 21,400 -927 Descending Oakland Center
Thu 04:17:58 PM 36.4403 -121.7772 338° Northwest 306 352 20,500 -885 Descending Oakland Center
Thu 04:18:58 PM 36.5333 -121.8167 341° North 298 343 19,600 -1,050 Descending Northern Cal TRACON
Thu 04:19:58 PM 36.6000 -121.8667 329° Northwest 306 352 18,400 -1,050 Descending Northern Cal TRACON
Thu 04:20:58 PM 36.6833 -121.9000 342° North 310 357 17,500 -1,000 Descending Northern Cal TRACON
Thu 04:21:58 PM 36.7667 -121.9500 334° Northwest 311 358 16,400 -1,158 Descending Northern Cal TRACON
Thu 04:22:52 PM 36.8333 -121.9833 338° Northwest 313 360 15,300 -1,211 Descending Northern Cal TRACON
Thu 04:23:52 PM 36.9167 -122.0167 342° North 311 358 14,100 -1,200 Descending Northern Cal TRACON
Thu 04:24:52 PM 36.9833 -122.0667 329° Northwest 312 359 12,900 -1,184 Descending Northern Cal TRACON
Thu 04:25:08 PM 37.0014 -122.0719 347° North 313 360 12,600 -1,013 Descending Oakland Center
Thu 04:26:09 PM 37.0864 -122.0836 354° North 313 360 11,600 -1,082 Descending Oakland Center
Thu 04:27:10 PM 37.1667 -122.0867 358° North 289 333 10,400 -1,317 Descending Oakland Center
Thu 04:28:12 PM 37.2475 -122.0856 North 245 282 8,900 -1,258 Descending Oakland Center
Thu 04:29:14 PM 37.3089 -122.0964 352° North 226 260 7,800 -1,024 Descending Oakland Center
Thu 04:30:15 PM 37.3656 -122.1206 341° North 214 246 6,800 -984 Descending Oakland Center
Thu 04:31:16 PM 37.4264 -122.1419 344° North 224 258 5,800 -1,171 Descending Oakland Center
Thu 04:32:18 PM 37.4872 -122.1672 342° North 227 261 4,400 -1,355 Descending Oakland Center

Login

Don't have an account? Register now (free) for customized features, flight alerts, and more!